createdAt,value
2023-03-29T00:00:47.984Z,58.18
2023-03-29T00:03:17.309Z,58.05
2023-03-29T00:05:49.003Z,58.41
2023-03-29T00:08:18.595Z,58.31
2023-03-29T00:10:49.718Z,58.79
2023-03-29T00:13:16.514Z,58.27
2023-03-29T00:15:47.974Z,58.02
2023-03-29T00:18:14.726Z,58.22
2023-03-29T00:20:45.904Z,58.30
2023-03-29T00:23:15.169Z,58.08
2023-03-29T00:25:45.013Z,57.88
2023-03-29T00:28:15.009Z,57.92
2023-03-29T00:30:46.712Z,58.20
2023-03-29T00:33:15.898Z,58.92
2023-03-29T00:35:45.251Z,59.15
2023-03-29T00:38:14.657Z,60.02
2023-03-29T00:40:47.124Z,60.96
2023-03-29T00:43:19.268Z,60.80
2023-03-29T00:45:51.528Z,61.47
2023-03-29T00:48:32.917Z,62.93
2023-03-29T00:51:10.033Z,62.17
2023-03-29T00:53:42.917Z,62.59
2023-03-29T00:56:19.620Z,64.66
2023-03-29T00:59:07.310Z,65.63
2023-03-29T01:01:55.215Z,66.30
2023-03-29T01:04:50.552Z,68.64
2023-03-29T01:07:28.618Z,70.12
2023-03-29T01:10:04.047Z,70.89
2023-03-29T01:12:41.947Z,70.79
2023-03-29T01:15:18.844Z,72.22
2023-03-29T01:17:53.945Z,73.33
2023-03-29T01:20:46.961Z,72.64
2023-03-29T01:23:43.778Z,72.94
2023-03-29T01:26:41.667Z,74.58
2023-03-29T01:29:33.453Z,74.64
2023-03-29T01:32:17.430Z,73.06
2023-03-29T01:35:22.910Z,74.36
2023-03-29T01:37:56.922Z,72.49
2023-03-29T01:40:31.347Z,72.96
2023-03-29T01:43:14.350Z,73.96
2023-03-29T01:46:11.628Z,72.46
2023-03-29T01:49:27.756Z,74.22
2023-03-29T01:52:08.213Z,72.79
2023-03-29T01:54:41.876Z,71.72
2023-03-29T01:57:10.791Z,72.56
2023-03-29T01:59:46.049Z,73.06
2023-03-29T02:02:19.416Z,72.29
2023-03-29T02:04:53.855Z,71.78
2023-03-29T02:07:30.884Z,71.47
2023-03-29T02:10:03.436Z,71.55
2023-03-29T02:12:35.755Z,71.39
2023-03-29T02:15:11.186Z,71.66
2023-03-29T02:17:40.438Z,71.46
2023-03-29T02:20:32.539Z,72.00
2023-03-29T02:23:34.429Z,72.26
2023-03-29T02:26:04.149Z,71.80
2023-03-29T02:28:33.925Z,71.80
2023-03-29T02:31:36.879Z,71.83
2023-03-29T02:34:13.604Z,71.62
2023-03-29T02:36:50.099Z,71.53
2023-03-29T02:39:25.480Z,71.84
2023-03-29T02:41:56.941Z,71.86
2023-03-29T02:44:29.903Z,71.82
2023-03-29T02:47:19.333Z,72.09
2023-03-29T02:49:48.377Z,71.81
2023-03-29T02:52:21.702Z,72.16
2023-03-29T02:54:54.528Z,72.63
2023-03-29T02:57:26.935Z,72.24
2023-03-29T02:59:57.270Z,72.42
2023-03-29T03:02:26.436Z,72.79
2023-03-29T03:04:54.381Z,72.67
2023-03-29T03:07:25.100Z,73.02
2023-03-29T03:09:52.107Z,72.97
2023-03-29T03:12:21.601Z,72.99
2023-03-29T03:14:50.843Z,73.06
2023-03-29T03:17:18.982Z,73.20
2023-03-29T03:19:53.354Z,73.27
2023-03-29T03:22:26.598Z,73.19
2023-03-29T03:24:53.437Z,72.98
2023-03-29T03:27:22.479Z,72.99
2023-03-29T03:29:51.819Z,73.21
2023-03-29T03:32:40.090Z,73.92
2023-03-29T03:35:29.911Z,73.44
2023-03-29T03:37:59.286Z,73.63
2023-03-29T03:40:28.270Z,73.35
2023-03-29T03:42:55.630Z,73.60
2023-03-29T03:45:27.268Z,73.73
2023-03-29T03:48:23.383Z,74.05
2023-03-29T03:50:58.585Z,74.17
2023-03-29T03:53:30.668Z,73.86
2023-03-29T03:56:16.535Z,73.70
2023-03-29T03:59:07.332Z,74.14
2023-03-29T04:01:52.880Z,73.91
2023-03-29T04:04:27.138Z,73.93
2023-03-29T04:07:11.685Z,73.70
2023-03-29T04:09:56.624Z,73.92
2023-03-29T04:12:44.101Z,74.21
2023-03-29T04:15:13.154Z,74.09
2023-03-29T04:17:51.598Z,73.61
2023-03-29T04:20:29.210Z,73.83
2023-03-29T04:22:59.146Z,74.00
2023-03-29T04:25:29.216Z,73.99
2023-03-29T04:28:00.896Z,73.80
2023-03-29T04:30:47.364Z,74.59
2023-03-29T04:33:21.828Z,74.94
2023-03-29T04:36:00.357Z,74.34
2023-03-29T04:38:27.644Z,74.22
2023-03-29T04:40:55.429Z,74.78
2023-03-29T04:43:46.778Z,74.42
2023-03-29T04:46:30.488Z,74.09
2023-03-29T04:49:12.913Z,74.12
2023-03-29T04:51:45.038Z,73.71
2023-03-29T04:54:14.403Z,73.85
2023-03-29T04:56:59.966Z,73.88
2023-03-29T04:59:46.557Z,73.90
2023-03-29T05:02:38.925Z,74.49
2023-03-29T05:05:11.823Z,74.15
2023-03-29T05:07:46.722Z,74.18
2023-03-29T05:10:17.205Z,74.44
2023-03-29T05:12:47.105Z,74.29
2023-03-29T05:15:19.113Z,74.14
2023-03-29T05:17:49.727Z,74.55
2023-03-29T05:20:22.378Z,74.59
2023-03-29T05:22:54.984Z,74.39
2023-03-29T05:25:41.742Z,74.58
2023-03-29T05:28:11.060Z,74.62
2023-03-29T05:30:40.880Z,74.64
2023-03-29T05:33:21.767Z,74.90
2023-03-29T05:35:59.856Z,74.55
2023-03-29T05:38:27.264Z,74.75
2023-03-29T05:40:54.251Z,74.67
2023-03-29T05:43:49.427Z,74.72
2023-03-29T05:46:19.504Z,75.55
2023-03-29T05:48:56.986Z,75.35
2023-03-29T05:51:39.084Z,75.08
2023-03-29T05:54:08.297Z,74.46
2023-03-29T05:56:40.335Z,74.87
2023-03-29T05:59:09.469Z,75.01
2023-03-29T06:01:40.192Z,74.74
2023-03-29T06:04:09.420Z,74.79
2023-03-29T06:06:48.801Z,74.12
2023-03-29T06:09:19.293Z,73.94
2023-03-29T06:12:02.907Z,73.52
2023-03-29T06:14:39.338Z,73.38
2023-03-29T06:17:29.423Z,72.63
2023-03-29T06:19:58.575Z,72.33
2023-03-29T06:22:27.919Z,72.32
2023-03-29T06:24:57.654Z,71.73
2023-03-29T06:27:29.125Z,71.32
2023-03-29T06:30:04.197Z,71.01
2023-03-29T06:32:31.145Z,70.95
2023-03-29T06:35:22.050Z,70.65
2023-03-29T06:37:57.823Z,70.67
2023-03-29T06:40:37.833Z,69.66
2023-03-29T06:43:06.897Z,69.48
2023-03-29T06:45:44.748Z,69.78
2023-03-29T06:48:28.244Z,68.92
2023-03-29T06:50:55.490Z,69.06
2023-03-29T06:53:28.317Z,69.02
2023-03-29T06:56:05.314Z,68.46
2023-03-29T06:58:45.233Z,68.09
2023-03-29T07:01:29.237Z,67.98
2023-03-29T07:04:08.263Z,68.26
2023-03-29T07:07:01.874Z,67.50
2023-03-29T07:09:36.045Z,67.83
2023-03-29T07:12:26.567Z,67.66
2023-03-29T07:15:03.110Z,67.88
2023-03-29T07:17:50.041Z,67.70
2023-03-29T07:20:23.163Z,67.70
2023-03-29T07:23:00.100Z,67.74
2023-03-29T07:25:31.423Z,66.57
2023-03-29T07:28:01.680Z,66.94
2023-03-29T07:30:32.387Z,66.63
2023-03-29T07:33:25.488Z,66.80
2023-03-29T07:35:55.865Z,66.41
2023-03-29T07:38:23.117Z,66.54
2023-03-29T07:40:59.788Z,65.53
2023-03-29T07:43:47.650Z,64.99
2023-03-29T07:46:20.625Z,64.18
2023-03-29T07:48:52.473Z,64.53
2023-03-29T07:51:22.649Z,63.48
2023-03-29T07:53:56.327Z,62.91
2023-03-29T07:56:55.603Z,62.95
2023-03-29T07:59:32.268Z,62.70
2023-03-29T08:02:13.796Z,61.76
2023-03-29T08:04:51.759Z,62.31
2023-03-29T08:07:40.919Z,62.20
2023-03-29T08:10:21.410Z,61.16
2023-03-29T08:13:09.800Z,60.80
2023-03-29T08:16:11.408Z,61.65
2023-03-29T08:18:50.940Z,61.83
2023-03-29T08:21:21.758Z,61.64
2023-03-29T08:23:52.793Z,61.85
2023-03-29T08:26:24.342Z,61.42
2023-03-29T08:28:51.668Z,61.21
2023-03-29T08:31:20.084Z,60.06
2023-03-29T08:33:54.265Z,60.62
2023-03-29T08:36:50.805Z,60.21
2023-03-29T08:39:29.371Z,60.06
2023-03-29T08:42:45.227Z,59.99
2023-03-29T08:45:35.650Z,59.66
2023-03-29T08:48:32.133Z,60.31
2023-03-29T08:51:38.992Z,60.60
2023-03-29T08:54:13.781Z,60.17
2023-03-29T08:57:13.049Z,59.58
2023-03-29T08:59:49.300Z,59.80
2023-03-29T09:02:22.440Z,59.69
2023-03-29T09:04:57.227Z,59.81
2023-03-29T09:07:33.748Z,59.33
2023-03-29T09:10:03.788Z,59.81
2023-03-29T09:13:14.725Z,58.99
2023-03-29T09:16:17.265Z,58.33
2023-03-29T09:18:55.703Z,58.35
2023-03-29T09:21:44.187Z,58.04
2023-03-29T09:24:17.004Z,59.22
2023-03-29T09:27:16.953Z,59.38
2023-03-29T09:29:52.718Z,58.70
2023-03-29T09:32:33.205Z,57.30
2023-03-29T09:35:10.084Z,57.42
2023-03-29T09:37:42.085Z,57.07
2023-03-29T09:40:20.579Z,57.10
2023-03-29T09:43:08.879Z,57.01
2023-03-29T09:45:41.099Z,56.87
2023-03-29T09:48:19.530Z,56.81
2023-03-29T09:50:55.554Z,57.50
2023-03-29T09:53:22.598Z,56.80
2023-03-29T09:56:03.093Z,56.83
2023-03-29T09:58:52.776Z,57.45
2023-03-29T10:01:22.942Z,57.37
2023-03-29T10:03:54.530Z,57.75
2023-03-29T10:06:29.612Z,58.22
2023-03-29T10:09:02.393Z,57.74
2023-03-29T10:11:38.630Z,56.69
2023-03-29T10:14:22.590Z,58.01
2023-03-29T10:16:56.509Z,57.60
2023-03-29T10:19:37.079Z,56.92
2023-03-29T10:22:24.423Z,56.35
2023-03-29T10:24:53.126Z,55.89
2023-03-29T10:27:29.332Z,54.97
2023-03-29T10:30:00.941Z,55.80
2023-03-29T10:32:30.080Z,54.14
2023-03-29T10:35:12.616Z,53.55
2023-03-29T10:37:52.600Z,53.14
2023-03-29T10:40:44.378Z,53.88
2023-03-29T10:43:21.818Z,55.06
2023-03-29T10:45:56.538Z,55.36
2023-03-29T10:48:37.044Z,53.05
2023-03-29T10:51:07.645Z,53.30
2023-03-29T10:53:38.448Z,54.16
2023-03-29T10:56:13.944Z,52.42
2023-03-29T10:59:23.552Z,52.58
2023-03-29T11:02:17.309Z,52.04
2023-03-29T11:04:57.538Z,51.37
2023-03-29T11:08:01.959Z,51.64
2023-03-29T11:11:04.132Z,53.00
2023-03-29T11:13:49.892Z,51.50
2023-03-29T11:16:19.746Z,51.43
2023-03-29T11:19:40.843Z,52.46
2023-03-29T11:22:09.972Z,52.27
2023-03-29T11:25:01.273Z,51.55
2023-03-29T11:27:53.357Z,50.70
2023-03-29T11:30:35.372Z,51.76
2023-03-29T11:33:28.148Z,51.41
2023-03-29T11:36:28.702Z,52.34
2023-03-29T11:39:02.254Z,52.84
2023-03-29T11:41:38.665Z,51.04
2023-03-29T11:44:27.240Z,51.97
2023-03-29T11:47:11.166Z,50.49
2023-03-29T11:49:54.772Z,50.72
2023-03-29T11:52:45.551Z,50.54
2023-03-29T11:55:34.631Z,49.17
2023-03-29T11:58:31.249Z,47.19
2023-03-29T12:01:25.749Z,46.47
2023-03-29T12:04:04.568Z,48.61
2023-03-29T12:06:49.880Z,47.15
2023-03-29T12:09:45.000Z,47.39
2023-03-29T12:12:25.230Z,47.66
2023-03-29T12:15:07.177Z,47.51
2023-03-29T12:17:53.406Z,47.22
2023-03-29T12:20:32.309Z,48.06
2023-03-29T12:23:05.292Z,48.42
2023-03-29T12:25:55.610Z,48.36
2023-03-29T12:28:58.754Z,47.66
2023-03-29T12:31:43.201Z,45.32
2023-03-29T12:34:35.167Z,47.28
2023-03-29T12:37:38.195Z,46.48
2023-03-29T12:40:43.506Z,46.68
2023-03-29T12:43:46.377Z,45.72
2023-03-29T12:46:43.229Z,47.31
2023-03-29T12:49:21.105Z,48.09
2023-03-29T12:51:51.472Z,48.17
2023-03-29T12:54:30.946Z,48.58
2023-03-29T12:57:05.305Z,48.79
2023-03-29T12:59:47.624Z,47.07
2023-03-29T13:02:22.310Z,48.13
2023-03-29T13:05:01.614Z,48.00
2023-03-29T13:07:45.676Z,48.10
2023-03-29T13:10:36.895Z,47.55
2023-03-29T13:13:25.113Z,47.01
2023-03-29T13:15:59.251Z,47.72
2023-03-29T13:18:37.349Z,48.03
2023-03-29T13:21:21.131Z,47.80
2023-03-29T13:24:36.832Z,47.23
2023-03-29T13:27:10.033Z,48.61
2023-03-29T13:29:55.930Z,47.76
2023-03-29T13:32:40.077Z,47.55
2023-03-29T13:35:15.230Z,47.63
2023-03-29T13:37:55.240Z,47.23
2023-03-29T13:40:48.005Z,47.55
2023-03-29T13:43:20.579Z,46.22
2023-03-29T13:46:00.886Z,47.26
2023-03-29T13:49:01.826Z,46.28
2023-03-29T13:51:45.520Z,47.32
2023-03-29T13:54:20.460Z,48.49
2023-03-29T13:57:09.083Z,44.52
2023-03-29T13:59:50.339Z,43.60
2023-03-29T14:02:33.729Z,43.57
2023-03-29T14:05:05.911Z,43.46
2023-03-29T14:07:34.026Z,45.13
2023-03-29T14:10:04.202Z,43.62
2023-03-29T14:12:39.522Z,43.78
2023-03-29T14:15:22.977Z,42.72
2023-03-29T14:18:00.687Z,43.49
2023-03-29T14:20:35.363Z,42.59
2023-03-29T14:23:20.132Z,40.48
2023-03-29T14:25:47.260Z,39.42
2023-03-29T14:28:32.145Z,39.12
2023-03-29T14:31:03.323Z,39.59
2023-03-29T14:33:38.204Z,39.05
2023-03-29T14:36:16.826Z,39.16
2023-03-29T14:38:53.538Z,39.38
2023-03-29T14:41:33.539Z,39.86
2023-03-29T14:44:07.224Z,40.41
2023-03-29T14:46:36.871Z,40.04
2023-03-29T14:49:06.769Z,40.63
2023-03-29T14:51:42.864Z,41.30
2023-03-29T14:54:23.946Z,41.18
2023-03-29T14:56:54.025Z,41.43
2023-03-29T14:59:27.525Z,42.62
2023-03-29T15:01:56.823Z,42.73
2023-03-29T15:04:33.013Z,42.17
2023-03-29T15:07:10.168Z,43.29
2023-03-29T15:09:45.089Z,43.76
2023-03-29T15:12:16.399Z,42.92
2023-03-29T15:14:45.745Z,43.20
2023-03-29T15:17:47.661Z,44.07
2023-03-29T15:20:31.875Z,43.80
2023-03-29T15:23:10.137Z,44.66
2023-03-29T15:25:41.912Z,45.03
2023-03-29T15:28:31.334Z,46.06
2023-03-29T15:31:12.406Z,46.85
2023-03-29T15:33:42.717Z,47.37
2023-03-29T15:36:14.237Z,48.48
2023-03-29T15:38:45.602Z,48.92
2023-03-29T15:41:14.676Z,49.46
2023-03-29T15:43:46.816Z,50.78
2023-03-29T15:46:18.898Z,51.01
2023-03-29T15:48:48.218Z,51.21
2023-03-29T15:51:17.252Z,51.18
2023-03-29T15:53:46.446Z,51.15
2023-03-29T15:56:20.940Z,51.10
2023-03-29T15:58:50.103Z,51.08
2023-03-29T16:01:38.934Z,51.14
2023-03-29T16:04:22.264Z,51.26
2023-03-29T16:06:54.276Z,52.02
2023-03-29T16:09:22.491Z,52.35
2023-03-29T16:11:52.280Z,52.36
2023-03-29T16:14:27.385Z,52.73
2023-03-29T16:17:01.135Z,52.62
2023-03-29T16:19:29.837Z,52.67
2023-03-29T16:22:03.392Z,52.96
2023-03-29T16:24:34.509Z,52.64
2023-03-29T16:27:06.780Z,53.02
2023-03-29T16:29:38.391Z,52.93
2023-03-29T16:32:10.016Z,52.92
2023-03-29T16:34:43.404Z,53.30
2023-03-29T16:37:13.101Z,53.24
2023-03-29T16:39:44.599Z,53.77
2023-03-29T16:42:16.563Z,54.08
2023-03-29T16:44:44.686Z,54.07
2023-03-29T16:47:12.474Z,54.50
2023-03-29T16:49:45.854Z,54.59
2023-03-29T16:52:12.769Z,55.27
2023-03-29T16:54:42.686Z,55.69
2023-03-29T16:57:11.921Z,56.72
2023-03-29T16:59:42.513Z,57.62
2023-03-29T17:02:12.090Z,58.18
2023-03-29T17:04:41.127Z,57.68
2023-03-29T17:07:10.439Z,58.32
2023-03-29T17:09:42.027Z,58.17
2023-03-29T17:12:15.966Z,58.51
2023-03-29T17:14:42.854Z,58.56
2023-03-29T17:17:14.426Z,58.37
2023-03-29T17:19:43.400Z,58.36
2023-03-29T17:22:12.475Z,58.29
2023-03-29T17:24:42.289Z,58.61
2023-03-29T17:27:16.237Z,59.20
2023-03-29T17:29:45.098Z,59.12
2023-03-29T17:32:17.201Z,58.81
2023-03-29T17:34:46.508Z,58.63
2023-03-29T17:37:16.018Z,59.34
2023-03-29T17:39:43.455Z,59.40
2023-03-29T17:42:16.168Z,59.31
2023-03-29T17:44:47.952Z,59.59
2023-03-29T17:47:19.548Z,60.01
2023-03-29T17:49:46.406Z,59.40
2023-03-29T17:52:15.490Z,59.31
2023-03-29T17:54:44.735Z,59.56
2023-03-29T17:57:13.762Z,59.73
2023-03-29T17:59:43.177Z,59.48
2023-03-29T18:02:22.197Z,59.50
2023-03-29T18:04:56.364Z,59.63
2023-03-29T18:07:25.594Z,59.54
2023-03-29T18:09:54.724Z,59.65
2023-03-29T18:12:30.130Z,59.80
2023-03-29T18:14:57.195Z,59.69
2023-03-29T18:17:31.457Z,59.81
2023-03-29T18:20:01.502Z,60.05
2023-03-29T18:22:29.144Z,60.35
2023-03-29T18:24:56.590Z,60.38
2023-03-29T18:27:28.272Z,60.86
2023-03-29T18:29:58.876Z,60.79
2023-03-29T18:32:25.719Z,60.95
2023-03-29T18:34:52.475Z,61.29
2023-03-29T18:37:24.083Z,61.21
2023-03-29T18:39:58.043Z,61.53
2023-03-29T18:42:27.216Z,61.67
2023-03-29T18:44:59.504Z,61.72
2023-03-29T18:47:31.206Z,62.26
2023-03-29T18:50:03.005Z,62.38
2023-03-29T18:52:32.436Z,62.77
2023-03-29T18:54:59.283Z,62.75
2023-03-29T18:57:28.573Z,63.14
2023-03-29T19:00:00.097Z,63.32
2023-03-29T19:02:29.446Z,63.36
2023-03-29T19:05:00.820Z,63.58
2023-03-29T19:07:29.977Z,63.71
2023-03-29T19:09:59.020Z,63.66
2023-03-29T19:12:32.930Z,64.05
2023-03-29T19:15:02.548Z,64.14
2023-03-29T19:17:29.474Z,64.31
2023-03-29T19:20:00.812Z,64.37
2023-03-29T19:22:27.772Z,64.33
2023-03-29T19:24:59.180Z,64.48
2023-03-29T19:27:26.189Z,64.68
2023-03-29T19:29:57.868Z,64.75
2023-03-29T19:32:27.352Z,65.38
2023-03-29T19:34:56.446Z,65.40
2023-03-29T19:37:23.359Z,65.82
2023-03-29T19:39:54.747Z,65.85
2023-03-29T19:42:21.653Z,66.20
2023-03-29T19:44:50.861Z,66.19
2023-03-29T19:47:17.742Z,66.59
2023-03-29T19:49:46.339Z,66.79
2023-03-29T19:52:13.289Z,66.63
2023-03-29T19:54:44.630Z,67.14
2023-03-29T19:57:17.181Z,66.94
2023-03-29T19:59:46.554Z,67.03
2023-03-29T20:02:15.777Z,67.20
2023-03-29T20:04:45.848Z,67.27
2023-03-29T20:07:14.926Z,67.52
2023-03-29T20:09:45.466Z,67.66
2023-03-29T20:12:12.426Z,67.84
2023-03-29T20:14:43.423Z,69.31
2023-03-29T20:17:15.674Z,69.22
2023-03-29T20:19:44.898Z,69.69
2023-03-29T20:22:12.256Z,69.32
2023-03-29T20:24:41.403Z,70.03
2023-03-29T20:27:11.169Z,70.11
2023-03-29T20:29:40.304Z,70.52
2023-03-29T20:32:09.524Z,70.38
2023-03-29T20:34:41.393Z,70.19
2023-03-29T20:37:10.659Z,70.38
2023-03-29T20:39:39.585Z,70.68
2023-03-29T20:42:09.444Z,70.65
2023-03-29T20:44:41.230Z,70.92
2023-03-29T20:47:14.264Z,70.99
2023-03-29T20:49:42.365Z,71.19
2023-03-29T20:52:18.309Z,71.61
2023-03-29T20:54:45.947Z,71.46
2023-03-29T20:57:18.977Z,71.65
2023-03-29T20:59:46.724Z,71.60
2023-03-29T21:02:21.484Z,71.59
2023-03-29T21:04:54.139Z,71.92
2023-03-29T21:07:21.890Z,71.73
2023-03-29T21:09:51.163Z,71.91
2023-03-29T21:12:21.094Z,71.97
2023-03-29T21:14:52.515Z,72.09
2023-03-29T21:17:24.920Z,72.16
2023-03-29T21:19:55.010Z,72.45
2023-03-29T21:22:22.148Z,72.14
2023-03-29T21:24:49.145Z,72.21
2023-03-29T21:27:23.069Z,72.29
2023-03-29T21:29:55.447Z,72.33
2023-03-29T21:32:24.850Z,72.46
2023-03-29T21:34:53.787Z,72.66
2023-03-29T21:37:28.015Z,72.79
2023-03-29T21:39:59.621Z,72.65
2023-03-29T21:42:27.957Z,72.64
2023-03-29T21:44:54.912Z,72.84
2023-03-29T21:47:21.753Z,73.15
2023-03-29T21:49:48.704Z,72.98
2023-03-29T21:52:20.424Z,72.51
2023-03-29T21:54:47.220Z,72.20
2023-03-29T21:57:16.431Z,72.32
2023-03-29T21:59:45.788Z,72.30
2023-03-29T22:02:12.658Z,72.27
2023-03-29T22:04:41.828Z,71.65
2023-03-29T22:07:10.864Z,71.40
2023-03-29T22:09:37.854Z,71.42
2023-03-29T22:12:04.932Z,71.41
2023-03-29T22:14:37.690Z,71.38
2023-03-29T22:17:10.920Z,71.34
2023-03-29T22:19:40.202Z,71.17
2023-03-29T22:22:13.938Z,70.95
2023-03-29T22:24:48.369Z,71.35
2023-03-29T22:27:15.160Z,70.70
2023-03-29T22:29:45.022Z,70.66
2023-03-29T22:32:14.786Z,70.47
2023-03-29T22:34:41.889Z,70.48
2023-03-29T22:37:16.085Z,70.42
2023-03-29T22:39:46.023Z,70.15
2023-03-29T22:42:12.792Z,70.37
2023-03-29T22:44:39.568Z,70.06
2023-03-29T22:47:06.823Z,70.00
2023-03-29T22:49:36.709Z,69.73
2023-03-29T22:52:05.987Z,69.49
2023-03-29T22:54:32.828Z,69.35
2023-03-29T22:57:02.044Z,69.42
2023-03-29T22:59:31.229Z,69.18
2023-03-29T23:01:58.424Z,69.06
2023-03-29T23:04:27.906Z,69.04
2023-03-29T23:07:00.494Z,68.88
2023-03-29T23:09:29.545Z,68.96
2023-03-29T23:11:58.861Z,68.58
2023-03-29T23:14:25.649Z,68.67
2023-03-29T23:16:54.756Z,68.71
2023-03-29T23:19:24.041Z,68.75
2023-03-29T23:21:51.031Z,68.78
2023-03-29T23:24:20.205Z,68.63
2023-03-29T23:26:49.109Z,68.60
2023-03-29T23:29:20.665Z,68.55
2023-03-29T23:31:56.925Z,68.49
2023-03-29T23:34:28.443Z,68.63
2023-03-29T23:36:57.751Z,68.33
2023-03-29T23:39:29.796Z,68.26
2023-03-29T23:42:01.828Z,67.98
2023-03-29T23:44:33.389Z,68.03
2023-03-29T23:47:02.694Z,67.99
2023-03-29T23:49:30.223Z,68.10
2023-03-29T23:52:00.288Z,67.73
2023-03-29T23:54:32.136Z,67.69
2023-03-29T23:57:03.089Z,67.56
2023-03-29T23:59:38.053Z,67.87
